Time;durP1;ratioP1;P1;durP2;ratioP2;P2;SDS_P1;SDS_P2;PMS_P1;PMS_P2;Temp;Humidity;BMP_temperature;BMP_pressure;BME280_temperature;BME280_humidity;BME280_pressure;Samples;Min_cycle;Max_cycle;Signal;HPM_P1;HPM_P2
2024/04/12 00:01:31;;;;;;;5.47;4.10;;;16.70;68.40;;;;;;5319160;26;20224;-52
2024/04/12 00:04:18;;;;;;;4.85;4.30;;;16.60;68.30;;;;;;5314393;26;20027;-53
2024/04/12 00:07:13;;;;;;;4.53;3.58;;;16.60;68.30;;;;;;5312451;26;20011;-51
2024/04/12 00:10:01;;;;;;;4.35;3.95;;;16.60;68.40;;;;;;5322754;26;20429;-52
2024/04/12 00:12:46;;;;;;;4.38;3.70;;;16.50;68.30;;;;;;5309069;26;20023;-52
2024/04/12 00:15:31;;;;;;;4.65;3.65;;;16.50;68.30;;;;;;5313480;26;20438;-51
2024/04/12 00:18:19;;;;;;;4.85;3.90;;;16.50;68.30;;;;;;5313433;26;20561;-51
2024/04/12 00:21:07;;;;;;;5.15;4.05;;;16.50;68.40;;;;;;5324386;26;20014;-49
2024/04/12 00:23:53;;;;;;;4.57;3.15;;;16.40;68.20;;;;;;5388238;26;20550;-48
2024/04/12 00:26:43;;;;;;;4.07;3.78;;;16.40;68.30;;;;;;5400511;26;20014;-54
2024/04/12 00:29:36;;;;;;;4.40;4.00;;;16.30;68.10;;;;;;5386653;26;20027;-54
2024/04/12 00:32:20;;;;;;;3.95;3.30;;;16.30;68.10;;;;;;5386243;26;20026;-52
2024/04/12 00:35:11;;;;;;;4.80;3.53;;;16.20;68.00;;;;;;5386936;26;20009;-54
2024/04/12 00:38:00;;;;;;;4.13;3.70;;;16.20;68.30;;;;;;5411706;26;20400;-55
2024/04/12 00:40:52;;;;;;;3.58;3.28;;;16.10;68.00;;;;;;5394921;26;20098;-54
2024/04/12 00:43:45;;;;;;;3.92;3.50;;;16.00;67.90;;;;;;5381545;26;20030;-52
2024/04/12 00:46:30;;;;;;;4.07;3.22;;;16.00;68.00;;;;;;5370420;26;20073;-52
2024/04/12 00:49:18;;;;;;;3.67;3.35;;;15.90;67.90;;;;;;5372392;26;20092;-56
2024/04/12 00:52:06;;;;;;;3.83;3.47;;;15.90;68.00;;;;;;5399671;26;20144;-53
2024/04/12 00:55:17;;;;;;;3.20;2.78;;;15.80;68.00;;;;;;5384751;26;20066;-51
2024/04/12 00:58:03;;;;;;;5.78;3.65;;;15.70;67.90;;;;;;5385638;26;20559;-52
2024/04/12 01:00:48;;;;;;;3.90;3.50;;;15.70;68.10;;;;;;5406222;26;20048;-49
2024/04/12 01:03:33;;;;;;;6.97;3.83;;;15.70;68.00;;;;;;5383492;26;20088;-51
2024/04/12 01:06:25;;;;;;;5.97;3.63;;;15.60;67.90;;;;;;5402662;26;20056;-52
2024/04/12 01:09:12;;;;;;;5.03;3.85;;;15.50;67.80;;;;;;5401046;26;20009;-50
2024/04/12 01:11:59;;;;;;;5.38;3.60;;;15.50;67.80;;;;;;5411139;26;20368;-52
2024/04/12 01:14:45;;;;;;;4.25;3.53;;;15.40;67.70;;;;;;5384088;26;20022;-53
2024/04/12 01:17:30;;;;;;;4.20;3.42;;;15.40;67.70;;;;;;5397164;26;20387;-54
2024/04/12 01:20:21;;;;;;;4.78;3.30;;;15.30;67.60;;;;;;5392139;26;20587;-51
2024/04/12 01:23:06;;;;;;;4.55;2.92;;;15.30;67.70;;;;;;5383326;26;20576;-50
2024/04/12 01:25:51;;;;;;;4.80;3.25;;;15.20;67.60;;;;;;5387212;26;20040;-49
2024/04/12 01:28:37;;;;;;;4.47;3.58;;;15.20;67.60;;;;;;5388987;26;20092;-57
2024/04/12 01:31:21;;;;;;;8.00;3.17;;;15.10;67.50;;;;;;5392356;26;20015;-52
2024/04/12 01:34:13;;;;;;;7.28;3.40;;;15.10;67.60;;;;;;5385754;26;20722;-48
2024/04/12 01:37:00;;;;;;;4.20;3.20;;;15.00;67.50;;;;;;5384492;26;20626;-53
2024/04/12 01:39:46;;;;;;;4.68;3.42;;;15.00;67.50;;;;;;5401846;26;20049;-51
2024/04/12 01:42:37;;;;;;;5.43;3.83;;;14.90;67.40;;;;;;5386326;26;20487;-61
2024/04/12 01:45:26;;;;;;;4.03;2.63;;;14.90;67.50;;;;;;5391411;26;20218;-57
2024/04/12 01:48:13;;;;;;;4.68;3.20;;;14.80;67.40;;;;;;5383745;26;20017;-49
2024/04/12 01:51:01;;;;;;;5.40;3.10;;;14.70;67.30;;;;;;5388707;26;20014;-53
2024/04/12 01:53:46;;;;;;;3.38;3.00;;;14.70;67.40;;;;;;5371546;26;20022;-52
2024/04/12 01:56:31;;;;;;;6.05;3.40;;;14.70;68.00;;;;;;5352188;26;20022;-50
2024/04/12 01:59:21;;;;;;;6.38;3.80;;;14.60;67.70;;;;;;5392064;26;20121;-49
2024/04/12 02:02:06;;;;;;;6.22;3.30;;;14.50;67.30;;;;;;5380829;26;20034;-52
2024/04/12 02:04:56;;;;;;;4.35;2.72;;;14.50;67.30;;;;;;5400451;26;20014;-51
2024/04/12 02:07:40;;;;;;;5.90;3.88;;;14.40;67.20;;;;;;5403246;26;20022;-54
2024/04/12 02:10:26;;;;;;;6.50;3.25;;;14.40;67.20;;;;;;5391194;26;20022;-51
2024/04/12 02:13:17;;;;;;;6.55;3.63;;;14.40;67.20;;;;;;5396591;26;20010;-47
2024/04/12 02:16:04;;;;;;;5.43;3.13;;;14.40;67.30;;;;;;5369217;26;20454;-50
2024/04/12 02:18:49;;;;;;;7.32;3.05;;;14.30;67.10;;;;;;5386949;26;20023;-55
2024/04/12 02:21:35;;;;;;;6.05;3.65;;;14.30;67.20;;;;;;5366282;26;20027;-53
2024/04/12 02:24:20;;;;;;;5.00;2.97;;;14.20;67.00;;;;;;5387142;26;20014;-52
2024/04/12 02:27:05;;;;;;;5.55;2.65;;;14.20;67.10;;;;;;5380695;26;20081;-53
2024/04/12 02:29:50;;;;;;;5.88;2.55;;;14.20;67.10;;;;;;5390141;26;20088;-52
2024/04/12 02:32:34;;;;;;;5.68;3.13;;;14.10;67.00;;;;;;5387406;26;20604;-53
2024/04/12 02:35:22;;;;;;;5.07;3.25;;;14.10;67.00;;;;;;5392325;26;20019;-52
2024/04/12 02:38:15;;;;;;;4.93;2.83;;;14.00;66.90;;;;;;5393260;26;20081;-52
2024/04/12 02:41:00;;;;;;;5.03;2.60;;;14.00;66.90;;;;;;5385126;26;20084;-50
2024/04/12 02:43:49;;;;;;;5.40;2.80;;;14.00;67.00;;;;;;5349960;26;20019;-53
2024/04/12 02:46:34;;;;;;;9.40;2.90;;;13.90;66.80;;;;;;5371019;26;20006;-50
2024/04/12 02:49:19;;;;;;;4.53;2.63;;;13.80;66.70;;;;;;5392040;26;20010;-54
2024/04/12 02:52:04;;;;;;;4.35;2.50;;;13.80;66.80;;;;;;5390339;26;20027;-52
2024/04/12 02:54:51;;;;;;;5.97;2.95;;;13.80;66.90;;;;;;5381441;26;20309;-60
2024/04/12 02:57:36;;;;;;;7.00;3.50;;;13.70;66.80;;;;;;5390472;26;20493;-56
2024/04/12 03:00:22;;;;;;;4.40;3.10;;;13.70;66.80;;;;;;5387720;26;20018;-62
2024/04/12 03:03:07;;;;;;;8.02;3.45;;;13.60;66.70;;;;;;5399899;26;20035;-49
2024/04/12 03:05:58;;;;;;;6.55;4.53;;;13.60;66.70;;;;;;5374242;26;20071;-52
2024/04/12 03:08:47;;;;;;;8.15;3.83;;;13.50;66.60;;;;;;5394130;26;20388;-52
2024/04/12 03:11:35;;;;;;;6.07;2.85;;;13.50;66.60;;;;;;5358876;26;20552;-49
2024/04/12 03:14:20;;;;;;;5.00;3.35;;;13.50;66.60;;;;;;5400195;26;20460;-54
2024/04/12 03:17:05;;;;;;;4.53;3.20;;;13.40;66.50;;;;;;5364134;26;20775;-52
2024/04/12 03:19:49;;;;;;;6.68;3.60;;;13.40;66.50;;;;;;5387497;26;20014;-51
2024/04/12 03:22:34;;;;;;;5.90;3.15;;;13.30;66.40;;;;;;5385023;26;20084;-55
2024/04/12 03:25:19;;;;;;;8.10;4.53;;;13.30;66.40;;;;;;5381364;26;20097;-52
2024/04/12 03:28:04;;;;;;;6.72;3.78;;;13.30;66.40;;;;;;5366119;26;20450;-51
2024/04/12 03:30:50;;;;;;;8.02;4.63;;;13.20;66.30;;;;;;5374239;26;20629;-51
2024/04/12 03:33:45;;;;;;;7.25;3.67;;;13.20;66.30;;;;;;5389292;26;20522;-49
2024/04/12 03:42:08;;;;;;;7.00;4.20;;;13.00;66.10;;;;;;5392757;26;20069;-50
2024/04/12 03:44:53;;;;;;;7.43;3.75;;;13.00;66.20;;;;;;5364231;26;20140;-51
2024/04/12 03:47:37;;;;;;;7.43;4.57;;;12.90;66.00;;;;;;5380776;26;20439;-51
2024/04/12 03:50:22;;;;;;;6.10;3.63;;;12.90;66.10;;;;;;5388878;26;20073;-52
2024/04/12 03:53:16;;;;;;;5.03;3.55;;;12.90;66.10;;;;;;5410299;26;20013;-51
2024/04/12 03:56:03;;;;;;;7.35;3.60;;;12.80;66.00;;;;;;5344085;26;20069;-54
2024/04/12 03:59:00;;;;;;;6.57;3.65;;;12.80;66.00;;;;;;5381863;26;20079;-51
2024/04/12 04:01:48;;;;;;;8.60;3.53;;;12.70;65.90;;;;;;5394283;26;20081;-48
2024/04/12 04:04:38;;;;;;;7.20;4.57;;;12.60;65.80;;;;;;5366584;26;20540;-51
2024/04/12 04:07:23;;;;;;;5.32;3.75;;;12.60;65.80;;;;;;5382345;26;20019;-55
2024/04/12 04:10:14;;;;;;;10.13;4.90;;;12.60;65.90;;;;;;5387386;26;20011;-50
2024/04/12 04:13:03;;;;;;;7.85;4.03;;;12.50;65.80;;;;;;5383410;26;20026;-49
2024/04/12 04:15:55;;;;;;;8.93;4.68;;;12.50;65.80;;;;;;5403794;26;20524;-50
2024/04/12 04:18:41;;;;;;;5.90;3.85;;;12.40;65.60;;;;;;5380661;26;20010;-50
2024/04/12 04:21:33;;;;;;;4.80;4.05;;;12.40;65.60;;;;;;5357700;26;20026;-49
2024/04/12 04:24:17;;;;;;;8.52;3.75;;;12.40;65.70;;;;;;5369666;26;20074;-52
2024/04/12 04:27:02;;;;;;;11.30;5.53;;;12.30;65.50;;;;;;5384101;26;20138;-50
2024/04/12 04:29:48;;;;;;;8.20;4.25;;;12.30;65.50;;;;;;5375449;26;20074;-51
2024/04/12 04:32:33;;;;;;;9.85;4.22;;;12.20;65.40;;;;;;5395259;26;20134;-55
2024/04/12 04:35:17;;;;;;;5.70;3.75;;;12.20;65.40;;;;;;5402283;26;20079;-52
2024/04/12 04:38:02;;;;;;;5.75;3.80;;;12.20;65.50;;;;;;5382935;26;20413;-52
2024/04/12 04:40:52;;;;;;;6.63;3.72;;;12.10;65.30;;;;;;5384272;26;20183;-52
2024/04/12 04:43:37;;;;;;;8.70;4.13;;;12.10;65.40;;;;;;5382047;26;20018;-53
2024/04/12 04:46:27;;;;;;;6.75;4.10;;;12.00;65.20;;;;;;5385289;26;20021;-52
2024/04/12 04:49:13;;;;;;;10.65;4.53;;;12.00;65.30;;;;;;5346456;26;20805;-52
2024/04/12 04:52:00;;;;;;;10.80;5.65;;;12.00;65.30;;;;;;5398281;26;20351;-52
2024/04/12 04:54:46;;;;;;;7.68;4.32;;;12.00;65.40;;;;;;5389744;26;20228;-53
2024/04/12 04:57:35;;;;;;;7.20;3.47;;;11.90;65.20;;;;;;5384316;26;20014;-50
2024/04/12 05:00:22;;;;;;;9.57;3.90;;;11.90;65.30;;;;;;5382139;26;20046;-49
2024/04/12 05:03:07;;;;;;;7.43;4.57;;;11.80;65.10;;;;;;5354231;26;20809;-51
2024/04/12 05:05:53;;;;;;;7.95;3.95;;;11.80;65.10;;;;;;5384032;26;20019;-54
2024/04/12 05:08:42;;;;;;;8.40;4.07;;;11.80;65.20;;;;;;5384675;26;20446;-50
2024/04/12 05:11:30;;;;;;;6.03;4.03;;;11.70;65.10;;;;;;5370887;26;20524;-52
2024/04/12 05:14:41;;;;;;;9.05;4.82;;;11.70;65.10;;;;;;5390151;26;20826;-50
2024/04/12 05:17:21;;;;;;;9.85;4.43;;;11.60;65.00;;;;;;5362674;26;20544;-50
2024/04/12 05:20:20;;;;;;;7.97;4.32;;;11.60;65.00;;;;;;5394555;26;20567;-51
2024/04/12 05:23:12;;;;;;;9.45;4.28;;;11.60;65.00;;;;;;5380689;26;20026;-51
2024/04/12 05:25:56;;;;;;;7.10;3.83;;;11.50;64.90;;;;;;5383056;26;20015;-52
2024/04/12 05:28:43;;;;;;;5.90;3.70;;;11.60;65.00;;;;;;5384282;26;20010;-51
2024/04/12 05:31:30;;;;;;;4.88;3.80;;;11.50;64.90;;;;;;5383573;26;20046;-51
2024/04/12 05:34:18;;;;;;;7.45;4.65;;;11.50;64.90;;;;;;5373652;26;20062;-49
2024/04/12 05:37:03;;;;;;;7.07;4.47;;;11.40;64.70;;;;;;5373362;26;20014;-49
2024/04/12 05:39:50;;;;;;;6.40;3.40;;;11.40;64.70;;;;;;5328454;26;20309;-49
2024/04/12 05:42:35;;;;;;;11.60;4.80;;;11.50;64.90;;;;;;5359880;26;20057;-51
2024/04/12 05:45:21;;;;;;;5.55;3.55;;;11.40;64.80;;;;;;5378758;26;20019;-50
2024/04/12 05:48:13;;;;;;;6.13;3.72;;;11.40;64.80;;;;;;5388409;26;20665;-49
2024/04/12 05:50:58;;;;;;;5.43;3.70;;;11.40;64.80;;;;;;5380760;26;20015;-50
2024/04/12 05:53:51;;;;;;;3.90;3.50;;;11.40;64.80;;;;;;5373186;26;20068;-51
2024/04/12 05:56:39;;;;;;;7.03;3.47;;;11.40;65.00;;;;;;5397113;26;20708;-50
2024/04/12 05:59:24;;;;;;;7.35;3.80;;;11.50;65.40;;;;;;5355992;26;20428;-51
2024/04/12 06:02:16;;;;;;;7.60;4.53;;;11.50;65.70;;;;;;5375026;26;20748;-51
2024/04/12 06:05:02;;;;;;;5.97;3.85;;;11.70;66.70;;;;;;5366839;26;20129;-52
2024/04/12 06:07:49;;;;;;;6.00;3.70;;;11.80;67.00;;;;;;5369126;26;20466;-49
2024/04/12 06:10:34;;;;;;;7.65;4.25;;;11.90;67.20;;;;;;5383339;26;20010;-49
2024/04/12 06:13:22;;;;;;;4.28;3.67;;;12.00;67.30;;;;;;5385672;26;20476;-49
2024/04/12 06:16:07;;;;;;;7.03;4.57;;;12.00;67.20;;;;;;5385575;26;20022;-54
2024/04/12 06:18:52;;;;;;;8.98;5.70;;;12.10;67.30;;;;;;5382298;26;20011;-53
2024/04/12 06:21:37;;;;;;;7.45;3.53;;;12.10;67.30;;;;;;5397353;26;20014;-50
2024/04/12 06:24:29;;;;;;;6.88;4.60;;;12.10;67.20;;;;;;5401832;26;20006;-51
2024/04/12 06:27:14;;;;;;;6.53;4.00;;;12.10;67.10;;;;;;5370545;26;20086;-51
2024/04/12 06:29:59;;;;;;;7.70;4.05;;;12.20;67.10;;;;;;5356968;26;20485;-52
2024/04/12 06:32:44;;;;;;;6.75;4.20;;;12.20;67.00;;;;;;5384242;26;20082;-52
2024/04/12 06:35:31;;;;;;;5.50;4.78;;;12.20;66.90;;;;;;5384618;26;20017;-51
2024/04/12 06:38:22;;;;;;;6.28;3.88;;;12.30;67.00;;;;;;5383844;26;20019;-50
2024/04/12 06:41:10;;;;;;;9.52;5.35;;;12.30;66.90;;;;;;5380676;26;20452;-51
2024/04/12 06:43:55;;;;;;;12.48;4.55;;;12.20;66.70;;;;;;5374564;26;20018;-51
2024/04/12 06:46:39;;;;;;;6.93;4.47;;;12.30;66.80;;;;;;5373466;26;20136;-49
2024/04/12 06:49:27;;;;;;;7.15;4.38;;;12.40;67.40;;;;;;5383379;26;20046;-53
2024/04/12 06:52:14;;;;;;;4.65;3.97;;;12.40;67.60;;;;;;5384888;26;20014;-52
2024/04/12 06:55:01;;;;;;;7.50;4.68;;;12.60;67.70;;;;;;5375177;26;20350;-52
2024/04/12 06:57:45;;;;;;;6.57;4.13;;;12.70;67.60;;;;;;5351364;26;20015;-53
2024/04/12 07:00:40;;;;;;;6.28;4.05;;;12.90;67.60;;;;;;5381916;26;20068;-52
2024/04/12 07:03:25;;;;;;;6.07;4.65;;;13.20;67.60;;;;;;5341293;26;20070;-49
2024/04/12 07:06:13;;;;;;;5.28;4.15;;;13.40;67.40;;;;;;5384443;26;20034;-53
2024/04/12 07:08:58;;;;;;;6.32;4.25;;;13.50;67.10;;;;;;5382982;26;20067;-52
2024/04/12 07:11:44;;;;;;;6.53;3.47;;;13.70;67.00;;;;;;5379694;26;20023;-49
2024/04/12 07:14:29;;;;;;;7.32;4.22;;;13.80;66.80;;;;;;5381231;26;20661;-52
2024/04/12 07:17:26;;;;;;;8.60;5.05;;;13.90;66.80;;;;;;5391135;26;20066;-53
2024/04/12 07:20:14;;;;;;;8.10;4.22;;;14.00;66.80;;;;;;5386986;26;20059;-51
2024/04/12 07:22:58;;;;;;;5.18;4.32;;;14.10;66.70;;;;;;5393273;26;20084;-53
2024/04/12 07:25:46;;;;;;;9.05;4.20;;;14.10;66.50;;;;;;5373189;26;20014;-53
2024/04/12 07:28:31;;;;;;;5.60;3.55;;;14.20;66.40;;;;;;5388692;26;20015;-49
2024/04/12 07:31:16;;;;;;;7.35;4.03;;;14.30;66.40;;;;;;5361688;26;20002;-52
2024/04/12 07:34:02;;;;;;;5.32;3.13;;;14.40;66.90;;;;;;5384175;26;20066;-55
2024/04/12 07:36:46;;;;;;;7.45;3.47;;;14.40;66.20;;;;;;5383176;26;20523;-52
2024/04/12 07:39:31;;;;;;;8.85;5.05;;;14.60;66.40;;;;;;5385480;26;20333;-52
2024/04/12 07:42:19;;;;;;;8.95;4.05;;;14.60;66.30;;;;;;5378263;26;20009;-54
2024/04/12 07:45:06;;;;;;;10.48;4.30;;;14.70;66.30;;;;;;5380830;26;20084;-49
2024/04/12 07:48:11;;;;;;;6.20;3.60;;;14.80;66.40;;;;;;5381231;26;20011;-52
2024/04/12 07:50:56;;;;;;;8.55;3.78;;;14.90;66.20;;;;;;5386462;26;20005;-52
2024/04/12 07:53:41;;;;;;;6.53;3.28;;;15.00;66.00;;;;;;5384102;26;20100;-54
2024/04/12 07:56:28;;;;;;;9.52;3.33;;;15.20;66.00;;;;;;5384480;26;20015;-50
2024/04/12 07:59:13;;;;;;;7.30;2.97;;;15.40;65.90;;;;;;5388714;26;20068;-51
2024/04/12 08:01:58;;;;;;;9.75;3.97;;;15.50;65.80;;;;;;5377166;26;20015;-50
2024/04/12 08:04:45;;;;;;;6.22;2.80;;;15.60;65.70;;;;;;5378993;26;20014;-49
2024/04/12 08:07:30;;;;;;;7.90;2.63;;;15.70;65.70;;;;;;5390995;26;20022;-53
2024/04/12 08:10:29;;;;;;;6.90;3.00;;;15.60;65.50;;;;;;5384829;26;20070;-53
2024/04/12 08:13:23;;;;;;;7.00;3.53;;;15.60;65.50;;;;;;5387658;26;20018;-52
2024/04/12 08:16:09;;;;;;;6.93;3.03;;;15.70;65.70;;;;;;5380415;26;20010;-50
2024/04/12 08:18:57;;;;;;;8.70;3.20;;;15.70;65.70;;;;;;5376457;26;20031;-50
2024/04/12 08:21:44;;;;;;;6.88;2.92;;;15.70;65.70;;;;;;5344534;26;20015;-52
2024/04/12 08:24:29;;;;;;;6.38;2.80;;;15.70;65.60;;;;;;5379884;26;20054;-51
2024/04/12 08:27:14;;;;;;;7.65;3.00;;;15.70;65.60;;;;;;5382700;26;20022;-52
2024/04/12 08:29:58;;;;;;;7.68;2.50;;;15.80;65.80;;;;;;5376934;26;20069;-55
2024/04/12 08:32:48;;;;;;;7.13;3.03;;;15.80;65.70;;;;;;5377371;26;20343;-54
2024/04/12 08:35:36;;;;;;;5.82;2.53;;;15.90;65.80;;;;;;5380007;26;20010;-53
2024/04/12 08:38:21;;;;;;;6.90;2.60;;;15.90;65.70;;;;;;5382963;26;20133;-48
2024/04/12 08:41:13;;;;;;;9.13;2.90;;;16.00;65.70;;;;;;5370921;26;20011;-53
2024/04/12 08:43:58;;;;;;;8.45;2.80;;;16.00;65.60;;;;;;5367735;26;20014;-52
2024/04/12 08:46:46;;;;;;;5.72;1.92;;;16.10;65.50;;;;;;5332945;26;20010;-49
2024/04/12 08:49:32;;;;;;;10.10;3.10;;;16.20;65.50;;;;;;5381042;26;20045;-52
2024/04/12 08:52:30;;;;;;;9.07;2.80;;;16.30;65.50;;;;;;5374107;26;20010;-51
2024/04/12 08:55:20;;;;;;;6.47;2.92;;;16.40;65.50;;;;;;5385491;26;20006;-53
2024/04/12 08:58:06;;;;;;;7.97;3.08;;;16.50;65.40;;;;;;5382608;26;20318;-52
2024/04/12 09:00:55;;;;;;;6.60;2.10;;;16.60;65.30;;;;;;5386922;26;20020;-50
2024/04/12 09:03:44;;;;;;;6.93;1.85;;;16.60;65.20;;;;;;5379067;26;20388;-53
2024/04/12 09:06:34;;;;;;;4.10;1.58;;;16.70;65.20;;;;;;5358473;26;20547;-52
2024/04/12 09:09:18;;;;;;;5.35;1.70;;;16.70;65.20;;;;;;5369891;26;20451;-51
2024/04/12 09:12:12;;;;;;;7.00;2.40;;;16.70;65.10;;;;;;5394338;26;20034;-52
2024/04/12 09:14:59;;;;;;;4.45;2.05;;;16.80;65.20;;;;;;5373603;26;20237;-50
2024/04/12 09:17:47;;;;;;;8.85;2.28;;;16.80;65.10;;;;;;5382532;26;20284;-52
2024/04/12 09:20:35;;;;;;;6.75;1.98;;;16.80;65.00;;;;;;5398780;26;20025;-51
2024/04/12 09:23:33;;;;;;;5.75;1.60;;;16.90;65.10;;;;;;5395038;26;20491;-50
2024/04/12 09:26:24;;;;;;;3.40;1.95;;;16.90;64.90;;;;;;5388192;26;20008;-52
2024/04/12 09:29:11;;;;;;;10.63;2.85;;;17.00;65.40;;;;;;5377500;26;20494;-52
2024/04/12 09:35:10;;;;;;;5.50;2.47;;;17.20;64.90;;;;;;5387601;26;20077;-49
2024/04/12 09:38:04;;;;;;;5.20;1.75;;;17.30;64.80;;;;;;5391046;26;20564;-48
2024/04/12 09:41:02;;;;;;;8.77;2.80;;;17.50;64.90;;;;;;5389756;26;20056;-51
2024/04/12 09:43:47;;;;;;;5.88;1.80;;;17.60;64.70;;;;;;5371794;26;20007;-51
2024/04/12 10:37:22;;;;;;;5.47;1.45;;;17.90;64.90;;;;;;5383897;26;20009;-52
2024/04/12 10:39:51;;;;;;;3.63;1.83;;;20.20;64.10;;;;;;5340847;26;20110;-49
2024/04/12 10:42:37;;;;;;;4.97;1.92;;;20.30;64.00;;;;;;5359592;26;21755;-50
2024/04/12 10:45:22;;;;;;;5.18;1.60;;;20.40;64.00;;;;;;5340355;26;20011;-51
2024/04/12 10:48:07;;;;;;;5.25;1.88;;;20.50;64.00;;;;;;5347926;26;20588;-53
2024/04/12 10:50:54;;;;;;;4.22;1.98;;;20.60;64.00;;;;;;5296215;26;20050;-52
2024/04/12 10:53:39;;;;;;;4.97;1.73;;;20.60;63.90;;;;;;5348803;26;20437;-52
2024/04/12 10:56:26;;;;;;;3.47;1.83;;;20.70;63.90;;;;;;5350678;26;20319;-50
2024/04/12 10:59:26;;;;;;;5.32;1.98;;;20.70;63.80;;;;;;5349782;26;20014;-53
2024/04/12 11:02:11;;;;;;;2.63;1.30;;;20.80;64.40;;;;;;5344846;26;20441;-55
2024/04/12 11:08:01;;;;;;;5.10;1.88;;;21.00;63.80;;;;;;5347493;26;20015;-52
2024/04/12 11:10:57;;;;;;;4.65;1.75;;;21.20;63.90;;;;;;5342697;26;20015;-53
2024/04/12 11:13:45;;;;;;;3.92;1.83;;;21.20;63.70;;;;;;5327137;26;20078;-52
2024/04/12 11:31:54;;;;;;;3.92;1.25;;;22.00;63.40;;;;;;5350570;26;20125;-53
2024/04/12 11:34:42;;;;;;;2.28;0.98;;;22.20;63.40;;;;;;5354740;26;20011;-51
2024/04/12 11:37:28;;;;;;;2.78;1.20;;;22.30;63.20;;;;;;5372899;26;20015;-52
2024/04/12 11:40:16;;;;;;;1.35;0.88;;;22.50;63.20;;;;;;5356865;26;20560;-51
2024/04/12 11:43:03;;;;;;;2.35;1.25;;;22.60;62.90;;;;;;5357949;26;20500;-53
2024/04/12 11:45:52;;;;;;;2.75;0.95;;;22.70;62.50;;;;;;5348988;26;20074;-51
2024/04/12 11:48:37;;;;;;;2.17;1.10;;;22.90;62.30;;;;;;5347387;26;20026;-47
2024/04/12 11:51:22;;;;;;;3.60;1.33;;;23.00;62.00;;;;;;5351079;26;20014;-51
2024/04/12 11:54:09;;;;;;;4.05;0.73;;;23.20;61.70;;;;;;5350901;26;20003;-51
2024/04/12 11:57:05;;;;;;;3.33;1.15;;;23.30;61.40;;;;;;5344692;26;20011;-50
2024/04/12 11:59:59;;;;;;;1.77;0.88;;;23.40;61.00;;;;;;5348464;26;20019;-52
2024/04/12 12:02:44;;;;;;;3.08;1.17;;;23.60;61.00;;;;;;5348923;26;21015;-51
2024/04/12 12:05:29;;;;;;;2.60;1.00;;;23.70;60.80;;;;;;5360675;26;20089;-51
2024/04/12 12:08:14;;;;;;;3.83;0.90;;;23.80;60.50;;;;;;5356560;26;20011;-52
2024/04/12 12:11:00;;;;;;;2.25;0.73;;;23.90;60.20;;;;;;5322961;26;20011;-47
2024/04/12 12:13:44;;;;;;;2.45;1.20;;;24.00;60.00;;;;;;5373794;26;20017;-52
2024/04/12 12:16:32;;;;;;;1.13;0.80;;;24.00;59.70;;;;;;5381635;26;20783;-50
2024/04/12 12:19:21;;;;;;;1.98;1.33;;;24.10;59.60;;;;;;5406486;26;20548;-52
2024/04/12 12:22:10;;;;;;;1.85;0.80;;;24.20;59.40;;;;;;5385559;26;20066;-50
2024/04/12 12:24:54;;;;;;;1.10;0.60;;;24.20;59.20;;;;;;5403660;26;20029;-48
2024/04/12 12:27:39;;;;;;;1.85;0.75;;;24.30;59.00;;;;;;5379928;26;20531;-52
2024/04/12 12:30:24;;;;;;;1.83;1.00;;;24.40;58.80;;;;;;5387522;26;20010;-52
2024/04/12 12:33:13;;;;;;;2.53;0.93;;;24.50;58.50;;;;;;5385937;26;20188;-51
2024/04/12 12:35:58;;;;;;;1.77;0.70;;;24.50;58.00;;;;;;5346296;26;20073;-50
2024/04/12 12:38:43;;;;;;;1.02;0.50;;;24.60;58.00;;;;;;5406911;26;20011;-52
2024/04/12 12:41:30;;;;;;;2.03;0.80;;;24.70;57.90;;;;;;5398288;26;20067;-50
2024/04/12 12:44:18;;;;;;;3.75;0.80;;;24.80;57.80;;;;;;5391021;26;20018;-51
2024/04/12 12:47:03;;;;;;;1.92;0.80;;;24.80;57.40;;;;;;5359907;26;20014;-50
2024/04/12 12:49:48;;;;;;;3.10;1.05;;;24.90;57.40;;;;;;5383792;26;20523;-54
2024/04/12 12:52:34;;;;;;;2.47;1.05;;;25.00;57.40;;;;;;5382868;26;20041;-50
2024/04/12 12:55:23;;;;;;;1.95;0.50;;;25.00;57.10;;;;;;5369535;26;20867;-50
2024/04/12 12:58:11;;;;;;;2.10;0.70;;;25.00;56.90;;;;;;5381188;26;20540;-50
2024/04/12 13:01:00;;;;;;;2.00;0.60;;;25.10;56.80;;;;;;5393415;26;20007;-52
2024/04/12 13:03:45;;;;;;;1.98;0.60;;;25.20;56.60;;;;;;5388629;26;20006;-53
2024/04/12 13:06:34;;;;;;;2.30;0.63;;;25.20;56.40;;;;;;5392741;26;20042;-51
2024/04/12 13:09:19;;;;;;;1.20;0.70;;;25.20;56.30;;;;;;5362594;26;20044;-52
2024/04/12 13:12:09;;;;;;;1.13;0.60;;;25.20;56.20;;;;;;5372149;26;20472;-51
2024/04/12 13:14:57;;;;;;;0.95;0.60;;;25.20;56.00;;;;;;5359256;26;20023;-50
2024/04/12 13:17:42;;;;;;;1.88;0.52;;;25.30;55.90;;;;;;5380521;26;20018;-52
2024/04/12 13:20:35;;;;;;;2.35;0.50;;;25.40;55.80;;;;;;5393067;26;20018;-50
2024/04/12 13:23:25;;;;;;;1.90;0.70;;;25.50;55.50;;;;;;5413648;26;20087;-53
2024/04/12 13:26:22;;;;;;;2.92;0.73;;;25.60;55.40;;;;;;5388199;26;20059;-52
2024/04/12 13:29:10;;;;;;;0.88;0.68;;;25.70;55.30;;;;;;5381172;26;20091;-52
2024/04/12 13:31:57;;;;;;;1.55;0.70;;;25.70;55.10;;;;;;5391101;26;20047;-51
2024/04/12 13:34:43;;;;;;;1.33;0.60;;;25.80;54.90;;;;;;5375783;26;20069;-52
2024/04/12 13:37:29;;;;;;;3.60;0.77;;;25.90;54.80;;;;;;5380279;26;20010;-49
2024/04/12 13:40:18;;;;;;;3.50;0.88;;;25.90;54.60;;;;;;5360291;26;20015;-53
2024/04/12 13:43:03;;;;;;;0.80;0.40;;;26.00;54.50;;;;;;5379657;26;20014;-52
2024/04/12 13:51:55;;;;;;;;;;;26.20;54.20;;;;;;5379051;26;20736;-54
2024/04/12 13:54:41;;;;;;;3.25;0.70;;;26.20;54.20;;;;;;5387637;26;19932;-54
2024/04/12 13:57:28;;;;;;;1.50;0.40;;;26.30;54.30;;;;;;5359126;26;20011;-55
2024/04/12 14:00:25;;;;;;;0.82;0.40;;;26.40;54.00;;;;;;5391823;26;20042;-51
2024/04/12 14:03:21;;;;;;;0.77;0.47;;;26.50;53.80;;;;;;5387599;26;20026;-54
2024/04/12 14:06:05;;;;;;;0.90;0.40;;;26.60;53.60;;;;;;5381267;26;20067;-51
2024/04/12 14:08:55;;;;;;;1.60;0.47;;;26.70;53.50;;;;;;5380730;26;20444;-53
2024/04/12 14:11:41;;;;;;;2.13;0.70;;;26.80;53.20;;;;;;5396977;26;20010;-52
2024/04/12 14:14:25;;;;;;;1.35;0.77;;;26.90;53.20;;;;;;5331422;26;20085;-51
2024/04/12 14:17:12;;;;;;;1.85;0.40;;;26.90;53.10;;;;;;5382568;26;20022;-49
2024/04/12 14:19:59;;;;;;;1.00;0.40;;;26.90;52.90;;;;;;5390894;26;20009;-53
2024/04/12 14:22:44;;;;;;;0.57;0.45;;;27.00;52.80;;;;;;5391271;26;20475;-51
2024/04/12 14:25:28;;;;;;;1.35;0.52;;;27.00;52.70;;;;;;5370568;26;20011;-51
2024/04/12 14:28:14;;;;;;;0.47;0.28;;;27.00;52.60;;;;;;5373915;26;20014;-51
2024/04/12 14:30:59;;;;;;;1.08;0.40;;;27.00;52.60;;;;;;5394759;26;20053;-54
2024/04/12 14:33:50;;;;;;;0.88;0.43;;;27.00;52.50;;;;;;5390022;26;20011;-54
2024/04/12 14:36:34;;;;;;;1.38;0.30;;;27.10;52.50;;;;;;5409192;26;20834;-52
2024/04/12 14:39:28;;;;;;;1.40;0.60;;;27.10;52.40;;;;;;5381892;26;20013;-51
2024/04/12 14:42:15;;;;;;;0.82;0.50;;;27.20;52.30;;;;;;5407139;26;20071;-52
2024/04/12 14:45:06;;;;;;;0.93;0.30;;;27.20;52.20;;;;;;5376217;26;20080;-51
2024/04/12 14:47:51;;;;;;;1.30;0.50;;;27.20;52.10;;;;;;5399777;26;20032;-53
2024/04/12 14:50:36;;;;;;;0.52;0.20;;;27.30;52.00;;;;;;5362101;26;20522;-53
2024/04/12 14:53:20;;;;;;;1.42;0.50;;;27.30;51.90;;;;;;5397477;26;20014;-53
2024/04/12 14:56:05;;;;;;;0.88;0.38;;;27.30;51.80;;;;;;5396316;26;20466;-49
2024/04/12 14:58:56;;;;;;;1.90;0.60;;;27.30;51.80;;;;;;5396482;26;20290;-51
2024/04/12 15:01:42;;;;;;;0.50;0.40;;;27.30;51.70;;;;;;5391945;26;20018;-54
2024/04/12 16:11:07;;;;;;;0.68;0.40;;;27.20;51.90;;;;;;5359722;26;19932;-53
2024/04/12 16:13:51;;;;;;;1.98;0.52;;;27.20;52.00;;;;;;5365221;26;20011;-49
2024/04/12 16:16:36;;;;;;;2.00;0.60;;;27.20;52.00;;;;;;5356603;26;20544;-54
2024/04/12 16:19:21;;;;;;;3.13;0.70;;;27.30;52.00;;;;;;5342543;26;20071;-56
2024/04/12 16:22:06;;;;;;;5.32;1.80;;;27.30;51.90;;;;;;5315116;26;20010;-52
2024/04/12 16:24:50;;;;;;;20.80;6.68;;;27.30;51.70;;;;;;5363717;26;20011;-52
2024/04/12 16:27:35;;;;;;;17.95;6.68;;;27.30;51.80;;;;;;5349691;26;20014;-50
2024/04/12 16:30:19;;;;;;;16.77;5.75;;;27.20;51.80;;;;;;5349274;26;20054;-51
2024/04/12 16:33:05;;;;;;;15.18;5.93;;;27.20;51.80;;;;;;5370465;26;20069;-52
2024/04/12 16:35:50;;;;;;;17.83;6.38;;;27.20;51.90;;;;;;5353199;26;20362;-53
2024/04/12 16:38:35;;;;;;;14.80;6.10;;;27.30;52.00;;;;;;5335541;26;20058;-49
2024/04/12 16:41:19;;;;;;;17.02;5.72;;;27.30;51.90;;;;;;5366303;26;20421;-54
2024/04/12 16:44:04;;;;;;;14.45;5.78;;;27.40;51.90;;;;;;5354075;26;20079;-49
2024/04/12 16:46:49;;;;;;;14.88;6.65;;;27.40;51.80;;;;;;5321429;26;20456;-50
2024/04/12 16:49:33;;;;;;;14.40;6.22;;;27.40;51.80;;;;;;5350324;26;20063;-53
2024/04/12 16:52:19;;;;;;;16.00;6.00;;;27.40;51.80;;;;;;5353153;26;20027;-56
2024/04/12 16:55:05;;;;;;;15.90;5.43;;;27.40;51.80;;;;;;5349176;26;20015;-48
2024/04/12 16:57:52;;;;;;;11.95;6.05;;;27.40;51.90;;;;;;5325925;26;20073;-54
2024/04/12 17:00:39;;;;;;;13.75;5.55;;;27.40;51.90;;;;;;5302064;26;20473;-58